createdAt,value
2022-10-17T00:01:05.880Z,17.51
2022-10-17T00:03:33.378Z,17.60
2022-10-17T00:06:00.787Z,17.63
2022-10-17T00:08:28.317Z,17.75
2022-10-17T00:11:00.393Z,17.75
2022-10-17T00:13:28.502Z,17.77
2022-10-17T00:15:58.096Z,17.75
2022-10-17T00:18:26.031Z,17.83
2022-10-17T00:20:53.686Z,17.82
2022-10-17T00:23:21.376Z,17.86
2022-10-17T00:25:48.788Z,17.82
2022-10-17T00:28:17.192Z,17.91
2022-10-17T00:30:44.591Z,17.85
2022-10-17T00:33:13.311Z,17.87
2022-10-17T00:35:40.684Z,18.06
2022-10-17T00:38:08.067Z,18.00
2022-10-17T00:40:35.445Z,18.02
2022-10-17T00:43:02.849Z,17.82
2022-10-17T00:45:32.542Z,17.77
2022-10-17T00:48:02.072Z,17.66
2022-10-17T00:50:31.082Z,17.69
2022-10-17T00:53:02.293Z,17.75
2022-10-17T00:55:32.769Z,17.82
2022-10-17T00:58:04.901Z,17.83
2022-10-17T01:00:32.440Z,17.84
2022-10-17T01:03:00.244Z,17.93
2022-10-17T01:05:27.704Z,17.94
2022-10-17T01:07:56.669Z,17.99
2022-10-17T01:10:28.491Z,18.13
2022-10-17T01:13:05.596Z,17.99
2022-10-17T01:15:57.188Z,17.81
2022-10-17T01:18:38.815Z,17.84
2022-10-17T01:21:31.134Z,17.89
2022-10-17T01:24:35.013Z,17.75
2022-10-17T01:27:28.498Z,17.66
2022-10-17T01:30:12.611Z,17.52
2022-10-17T01:32:46.660Z,17.60
2022-10-17T01:35:21.064Z,17.61
2022-10-17T01:37:55.599Z,17.72
2022-10-17T01:40:29.080Z,17.64
2022-10-17T01:43:00.367Z,17.74
2022-10-17T01:45:33.576Z,17.75
2022-10-17T01:48:08.101Z,17.63
2022-10-17T01:50:39.971Z,17.59
2022-10-17T01:53:12.645Z,17.52
2022-10-17T01:55:42.932Z,17.45
2022-10-17T01:58:14.313Z,17.51
2022-10-17T02:00:44.332Z,17.50
2022-10-17T02:03:17.717Z,17.58
2022-10-17T02:05:45.536Z,17.45
2022-10-17T02:08:13.464Z,17.28
2022-10-17T02:10:47.392Z,17.34
2022-10-17T02:13:21.734Z,17.40
2022-10-17T02:16:04.684Z,17.41
2022-10-17T02:18:48.008Z,17.56
2022-10-17T02:21:22.125Z,17.50
2022-10-17T02:23:57.217Z,17.59
2022-10-17T02:26:29.339Z,17.67
2022-10-17T02:29:08.070Z,17.69
2022-10-17T02:31:39.559Z,17.75
2022-10-17T02:34:14.014Z,17.78
2022-10-17T02:36:47.355Z,17.85
2022-10-17T02:39:16.955Z,17.78
2022-10-17T02:41:46.365Z,17.85
2022-10-17T02:44:13.747Z,17.84
2022-10-17T02:46:43.773Z,17.69
2022-10-17T02:49:19.481Z,17.66
2022-10-17T02:51:53.592Z,17.71
2022-10-17T02:54:25.952Z,17.81
2022-10-17T02:56:57.422Z,17.79
2022-10-17T02:59:27.424Z,17.80
2022-10-17T03:01:55.450Z,17.70
2022-10-17T03:04:24.153Z,17.61
2022-10-17T03:06:51.568Z,17.63
2022-10-17T03:09:18.925Z,17.76
2022-10-17T03:11:46.311Z,17.79
2022-10-17T03:14:13.695Z,17.71
2022-10-17T03:16:41.079Z,17.76
2022-10-17T03:19:08.795Z,17.76
2022-10-17T03:21:38.118Z,17.78
2022-10-17T03:24:06.292Z,17.73
2022-10-17T03:26:33.696Z,17.81
2022-10-17T03:29:01.105Z,17.79
2022-10-17T03:31:28.515Z,17.61
2022-10-17T03:33:55.872Z,17.73
2022-10-17T03:36:23.263Z,17.75
2022-10-17T03:38:54.369Z,17.61
2022-10-17T03:41:21.785Z,17.75
2022-10-17T03:43:49.200Z,17.68
2022-10-17T03:48:48.915Z,17.55
2022-10-17T03:51:16.382Z,17.51
2022-10-17T03:53:43.953Z,17.62
2022-10-17T03:56:14.777Z,17.66
2022-10-17T03:58:42.533Z,17.70
2022-10-17T04:01:12.480Z,17.57
2022-10-17T04:03:40.021Z,17.67
2022-10-17T04:06:08.106Z,17.56
2022-10-17T04:08:35.739Z,17.71
2022-10-17T04:11:05.057Z,17.57
2022-10-17T04:13:34.483Z,17.44
2022-10-17T04:16:03.242Z,17.57
2022-10-17T04:18:30.635Z,17.50
2022-10-17T04:20:58.349Z,17.52
2022-10-17T04:23:26.554Z,17.53
2022-10-17T04:25:56.941Z,17.47
2022-10-17T04:28:24.735Z,17.30
2022-10-17T04:30:58.588Z,17.38
2022-10-17T04:33:26.118Z,17.35
2022-10-17T04:35:57.715Z,17.40
2022-10-17T04:38:28.438Z,17.41
2022-10-17T04:40:58.306Z,17.31
2022-10-17T04:43:26.377Z,17.45
2022-10-17T04:45:53.748Z,17.38
2022-10-17T04:48:22.592Z,17.29
2022-10-17T04:50:56.616Z,17.40
2022-10-17T04:53:25.118Z,17.47
2022-10-17T04:55:52.659Z,17.42
2022-10-17T04:58:20.255Z,17.36
2022-10-17T05:00:47.907Z,17.30
2022-10-17T05:03:15.950Z,17.27
2022-10-17T05:05:44.715Z,17.26
2022-10-17T05:08:13.044Z,17.44
2022-10-17T05:10:42.438Z,17.34
2022-10-17T05:13:10.973Z,17.35
2022-10-17T05:15:39.431Z,17.38
2022-10-17T05:18:07.777Z,17.28
2022-10-17T05:20:35.169Z,17.25
2022-10-17T05:23:04.028Z,17.27
2022-10-17T05:25:31.402Z,17.26
2022-10-17T05:27:58.771Z,17.27
2022-10-17T05:30:26.153Z,17.31
2022-10-17T05:32:54.780Z,17.33
2022-10-17T05:35:22.769Z,17.12
2022-10-17T05:37:50.217Z,17.41
2022-10-17T05:40:19.111Z,17.35
2022-10-17T05:42:48.253Z,17.37
2022-10-17T05:45:15.994Z,17.36
2022-10-17T05:47:43.448Z,17.48
2022-10-17T05:50:11.176Z,17.32
2022-10-17T05:52:38.673Z,17.59
2022-10-17T05:55:07.683Z,17.47
2022-10-17T05:57:36.703Z,17.54
2022-10-17T06:00:05.041Z,17.69
2022-10-17T06:02:33.239Z,17.71
2022-10-17T06:05:01.006Z,17.53
2022-10-17T06:07:28.497Z,17.73
2022-10-17T06:09:55.861Z,17.71
2022-10-17T06:12:23.287Z,17.76
2022-10-17T06:14:52.108Z,17.89
2022-10-17T06:17:19.494Z,17.92
2022-10-17T06:19:47.068Z,17.89
2022-10-17T06:22:14.985Z,18.00
2022-10-17T06:24:43.232Z,17.87
2022-10-17T06:27:11.880Z,17.95
2022-10-17T06:29:39.636Z,18.02
2022-10-17T06:32:11.114Z,18.11
2022-10-17T06:34:41.711Z,18.21
2022-10-17T06:37:09.091Z,18.18
2022-10-17T06:39:37.010Z,18.07
2022-10-17T06:42:05.077Z,18.02
2022-10-17T06:44:32.485Z,18.11
2022-10-17T06:47:00.808Z,18.16
2022-10-17T06:49:29.825Z,17.99
2022-10-17T06:51:57.281Z,18.19
2022-10-17T06:54:24.666Z,18.28
2022-10-17T06:56:52.054Z,18.15
2022-10-17T06:59:19.442Z,18.08
2022-10-17T07:01:47.332Z,17.77
2022-10-17T07:04:14.977Z,17.99
2022-10-17T07:06:43.717Z,18.37
2022-10-17T07:09:11.168Z,18.19
2022-10-17T07:11:40.112Z,18.23
2022-10-17T07:14:07.575Z,18.49
2022-10-17T07:16:35.174Z,18.60
2022-10-17T07:19:03.029Z,18.21
2022-10-17T07:21:33.036Z,18.33
2022-10-17T07:24:04.289Z,17.77
2022-10-17T07:26:31.718Z,18.42
2022-10-17T07:28:59.146Z,18.75
2022-10-17T07:31:26.745Z,18.43
2022-10-17T07:33:54.149Z,18.73
2022-10-17T07:36:21.521Z,18.15
2022-10-17T07:38:48.883Z,18.36
2022-10-17T07:41:21.677Z,18.79
2022-10-17T07:43:49.436Z,18.27
2022-10-17T07:46:16.817Z,18.85
2022-10-17T07:48:44.182Z,18.81
2022-10-17T07:51:11.844Z,18.98
2022-10-17T07:53:42.688Z,19.12
2022-10-17T07:56:12.968Z,19.04
2022-10-17T07:58:41.696Z,18.85
2022-10-17T08:01:15.486Z,19.06
2022-10-17T08:03:45.245Z,19.09
2022-10-17T08:06:13.672Z,19.01
2022-10-17T08:08:41.681Z,19.15
2022-10-17T08:11:12.514Z,19.00
2022-10-17T08:13:42.215Z,19.09
2022-10-17T08:16:13.143Z,19.36
2022-10-17T08:18:43.310Z,19.54
2022-10-17T08:21:12.987Z,19.56
2022-10-17T08:23:40.742Z,19.84
2022-10-17T08:26:10.977Z,19.95
2022-10-17T08:28:39.974Z,19.93
2022-10-17T08:31:11.163Z,20.17
2022-10-17T08:33:38.905Z,20.18
2022-10-17T08:36:07.386Z,20.27
2022-10-17T08:38:36.899Z,20.38
2022-10-17T08:41:12.770Z,20.30
2022-10-17T08:43:52.365Z,20.19
2022-10-17T08:46:21.748Z,20.53
2022-10-17T08:48:52.238Z,20.24
2022-10-17T08:51:25.362Z,19.92
2022-10-17T08:54:00.520Z,20.10
2022-10-17T08:56:47.919Z,20.21
2022-10-17T08:59:19.814Z,20.34
2022-10-17T09:01:55.645Z,20.58
2022-10-17T09:04:41.248Z,20.53
2022-10-17T09:07:19.268Z,20.79
2022-10-17T09:09:56.289Z,20.70
2022-10-17T09:12:28.152Z,20.62
2022-10-17T09:15:07.209Z,20.76
2022-10-17T09:17:44.040Z,20.86
2022-10-17T09:20:16.868Z,20.34
2022-10-17T09:22:51.888Z,20.63
2022-10-17T09:25:21.653Z,20.82
2022-10-17T09:27:52.337Z,20.89
2022-10-17T09:30:51.030Z,20.65
2022-10-17T09:33:34.595Z,20.83
2022-10-17T09:36:09.252Z,20.83
2022-10-17T09:38:42.256Z,20.75
2022-10-17T09:41:43.455Z,20.85
2022-10-17T09:44:17.076Z,20.71
2022-10-17T09:46:53.134Z,21.12
2022-10-17T09:49:32.472Z,21.11
2022-10-17T09:52:01.474Z,21.24
2022-10-17T09:54:34.922Z,21.05
2022-10-17T09:57:04.452Z,21.21
2022-10-17T09:59:36.370Z,21.34
2022-10-17T10:02:17.070Z,21.33
2022-10-17T10:05:04.727Z,21.71
2022-10-17T10:07:35.249Z,21.35
2022-10-17T10:10:05.487Z,21.67
2022-10-17T10:12:35.391Z,21.80
2022-10-17T10:15:03.087Z,21.76
2022-10-17T10:17:37.471Z,21.55
2022-10-17T10:20:32.840Z,21.89
2022-10-17T10:23:14.475Z,21.91
2022-10-17T10:25:55.525Z,22.17
2022-10-17T10:28:27.238Z,22.12
2022-10-17T10:30:56.753Z,22.26
2022-10-17T10:33:28.230Z,22.13
2022-10-17T10:36:01.282Z,22.57
2022-10-17T10:38:30.034Z,22.38
2022-10-17T10:41:02.526Z,22.68
2022-10-17T10:43:35.617Z,22.64
2022-10-17T10:46:06.286Z,22.71
2022-10-17T10:48:36.455Z,22.68
2022-10-17T10:51:08.936Z,22.75
2022-10-17T10:53:46.599Z,22.44
2022-10-17T10:56:19.295Z,22.55
2022-10-17T10:58:52.668Z,22.52
2022-10-17T11:01:26.495Z,22.98
2022-10-17T11:04:06.987Z,23.29
2022-10-17T11:06:38.075Z,23.36
2022-10-17T11:09:24.040Z,23.05
2022-10-17T11:11:59.008Z,23.17
2022-10-17T11:14:40.664Z,23.13
2022-10-17T11:17:17.268Z,23.20
2022-10-17T11:19:52.677Z,23.11
2022-10-17T11:22:29.368Z,23.07
2022-10-17T11:25:00.995Z,23.16
2022-10-17T11:27:30.435Z,23.16
2022-10-17T11:29:59.344Z,23.41
2022-10-17T11:32:32.752Z,23.20
2022-10-17T11:35:06.591Z,23.17
2022-10-17T11:37:40.924Z,23.28
2022-10-17T11:40:19.281Z,23.35
2022-10-17T11:42:55.793Z,23.67
2022-10-17T11:45:27.247Z,23.08
2022-10-17T11:47:58.264Z,23.29
2022-10-17T11:53:20.156Z,23.60
2022-10-17T11:55:48.703Z,23.48
2022-10-17T12:01:14.414Z,23.55
2022-10-17T12:03:53.590Z,23.94
2022-10-17T12:06:36.218Z,23.71
2022-10-17T12:09:12.736Z,24.07
2022-10-17T12:11:50.766Z,24.19
2022-10-17T12:14:42.478Z,24.14
2022-10-17T12:17:28.943Z,23.92
2022-10-17T12:20:28.321Z,24.23
2022-10-17T12:22:57.287Z,24.44
2022-10-17T12:25:29.945Z,24.27
2022-10-17T12:28:14.999Z,24.16
2022-10-17T12:30:55.017Z,24.29
2022-10-17T12:33:31.861Z,24.08
2022-10-17T12:36:47.834Z,23.96
2022-10-17T12:39:52.243Z,23.87
2022-10-17T12:42:50.269Z,24.41
2022-10-17T12:45:46.950Z,24.51
2022-10-17T12:48:14.531Z,24.09
2022-10-17T12:51:34.184Z,24.05
2022-10-17T12:53:59.487Z,23.93
2022-10-17T12:56:37.490Z,24.21
2022-10-17T12:59:13.433Z,24.01
2022-10-17T13:01:44.825Z,24.30
2022-10-17T13:04:12.584Z,24.14
2022-10-17T13:06:46.636Z,24.30
2022-10-17T13:09:23.877Z,24.14
2022-10-17T13:11:51.977Z,24.28
2022-10-17T13:14:23.815Z,24.50
2022-10-17T13:16:54.118Z,24.51
2022-10-17T13:19:24.161Z,24.25
2022-10-17T13:21:53.351Z,24.44
2022-10-17T13:24:22.039Z,24.37
2022-10-17T13:26:49.511Z,24.54
2022-10-17T13:29:18.138Z,24.27
2022-10-17T13:31:53.425Z,24.24
2022-10-17T13:34:23.148Z,24.25
2022-10-17T13:36:54.054Z,24.16
2022-10-17T13:42:26.661Z,24.41
2022-10-17T13:44:54.579Z,24.53
2022-10-17T13:47:25.803Z,24.34
2022-10-17T13:49:55.525Z,24.28
2022-10-17T13:52:27.047Z,24.32
2022-10-17T13:54:55.511Z,24.56
2022-10-17T13:57:26.112Z,24.24
2022-10-17T13:59:57.105Z,24.26
2022-10-17T14:02:27.685Z,24.09
2022-10-17T14:05:16.864Z,24.19
2022-10-17T14:08:10.578Z,24.28
2022-10-17T14:10:40.945Z,24.18
2022-10-17T14:13:19.814Z,24.10
2022-10-17T14:15:47.833Z,24.22
2022-10-17T14:18:21.847Z,24.12
2022-10-17T14:21:33.994Z,24.24
2022-10-17T14:23:40.432Z,24.30
2022-10-17T14:26:11.481Z,24.12
2022-10-17T14:28:39.887Z,24.39
2022-10-17T14:31:15.040Z,24.53
2022-10-17T14:33:50.630Z,24.52
2022-10-17T14:36:20.222Z,24.13
2022-10-17T14:38:49.346Z,24.38
2022-10-17T14:41:42.009Z,24.41
2022-10-17T14:44:20.353Z,24.25
2022-10-17T14:46:51.118Z,24.15
2022-10-17T14:49:26.102Z,24.04
2022-10-17T14:52:21.249Z,23.99
2022-10-17T14:54:50.297Z,24.25
2022-10-17T14:57:20.140Z,24.01
2022-10-17T14:59:55.561Z,23.89
2022-10-17T15:02:23.411Z,24.10
2022-10-17T15:04:52.721Z,24.08
2022-10-17T15:07:21.357Z,23.98
2022-10-17T15:09:50.584Z,23.79
2022-10-17T15:12:20.204Z,24.13
2022-10-17T15:14:48.809Z,23.85
2022-10-17T15:17:18.485Z,23.75
2022-10-17T15:19:46.134Z,23.82
2022-10-17T15:22:16.075Z,23.86
2022-10-17T15:24:45.817Z,23.86
2022-10-17T15:27:16.901Z,24.07
2022-10-17T15:29:44.723Z,23.79
2022-10-17T15:32:12.264Z,23.85
2022-10-17T15:34:39.948Z,23.99
2022-10-17T15:37:15.414Z,23.74
2022-10-17T15:39:45.236Z,23.73
2022-10-17T15:42:13.083Z,23.67
2022-10-17T15:44:43.963Z,23.63
2022-10-17T15:47:23.189Z,23.53
2022-10-17T15:49:50.609Z,23.76
2022-10-17T15:52:19.641Z,23.68
2022-10-17T15:54:48.328Z,23.33
2022-10-17T15:57:19.138Z,23.54
2022-10-17T15:59:47.811Z,23.27
2022-10-17T16:02:16.545Z,23.33
2022-10-17T16:04:44.743Z,23.27
2022-10-17T16:07:12.292Z,23.37
2022-10-17T16:09:40.062Z,23.46
2022-10-17T16:12:15.514Z,22.90
2022-10-17T16:14:42.954Z,22.77
2022-10-17T16:17:13.700Z,23.13
2022-10-17T16:19:41.080Z,23.28
2022-10-17T16:22:17.591Z,22.95
2022-10-17T16:24:45.026Z,22.90
2022-10-17T16:27:13.763Z,22.70
2022-10-17T16:29:41.155Z,22.79
2022-10-17T16:32:10.126Z,23.09
2022-10-17T16:34:37.582Z,22.76
2022-10-17T16:37:05.084Z,22.87
2022-10-17T16:39:32.454Z,22.98
2022-10-17T16:41:59.901Z,22.67
2022-10-17T16:44:28.622Z,22.78
2022-10-17T16:46:56.044Z,22.67
2022-10-17T16:49:23.417Z,22.56
2022-10-17T16:51:50.819Z,22.70
2022-10-17T16:54:18.472Z,22.53
2022-10-17T16:56:45.905Z,22.87
2022-10-17T16:59:13.291Z,22.81
2022-10-17T17:01:42.093Z,22.85
2022-10-17T17:04:09.792Z,22.37
2022-10-17T17:06:38.407Z,22.84
2022-10-17T17:09:05.835Z,22.76
2022-10-17T17:11:33.333Z,22.71
2022-10-17T17:14:01.693Z,22.70
2022-10-17T17:16:31.035Z,22.53
2022-10-17T17:19:01.808Z,22.32
2022-10-17T17:21:29.504Z,22.75
2022-10-17T17:23:58.579Z,22.71
2022-10-17T17:26:28.107Z,22.74
2022-10-17T17:28:57.989Z,22.78
2022-10-17T17:31:27.161Z,22.70
2022-10-17T17:36:32.251Z,22.93
2022-10-17T17:39:01.812Z,22.87
2022-10-17T17:41:29.707Z,22.60
2022-10-17T17:43:57.683Z,22.42
2022-10-17T17:46:27.867Z,22.31
2022-10-17T17:48:56.231Z,22.36
2022-10-17T17:51:29.488Z,22.22
2022-10-17T17:53:58.413Z,22.24
2022-10-17T17:56:29.436Z,22.47
2022-10-17T17:59:00.054Z,22.50
2022-10-17T18:01:29.950Z,22.49
2022-10-17T18:03:59.671Z,22.53
2022-10-17T18:06:28.374Z,22.36
2022-10-17T18:09:01.442Z,21.94
2022-10-17T18:11:29.603Z,22.48
2022-10-17T18:13:58.359Z,22.53
2022-10-17T18:16:27.156Z,22.51
2022-10-17T18:18:54.573Z,22.43
2022-10-17T18:21:22.040Z,22.54
2022-10-17T18:23:51.834Z,22.03
2022-10-17T18:26:20.736Z,22.21
2022-10-17T18:28:49.599Z,22.29
2022-10-17T18:31:23.921Z,22.20
2022-10-17T18:33:52.559Z,22.13
2022-10-17T18:36:20.975Z,22.11
2022-10-17T18:38:48.791Z,22.14
2022-10-17T18:41:17.422Z,22.16
2022-10-17T18:43:47.992Z,22.07
2022-10-17T18:46:19.037Z,22.02
2022-10-17T18:48:47.825Z,21.89
2022-10-17T18:51:17.450Z,21.87
2022-10-17T18:53:47.297Z,22.02
2022-10-17T18:56:15.289Z,22.10
2022-10-17T18:58:43.336Z,22.22
2022-10-17T19:01:15.359Z,22.25
2022-10-17T19:03:43.796Z,22.09
2022-10-17T19:06:12.843Z,22.09
2022-10-17T19:08:40.975Z,22.03
2022-10-17T19:11:13.670Z,21.97
2022-10-17T19:13:41.865Z,21.93
2022-10-17T19:16:11.063Z,21.94
2022-10-17T19:18:40.159Z,21.96
2022-10-17T19:21:09.228Z,21.96
2022-10-17T19:23:38.143Z,21.91
2022-10-17T19:26:06.813Z,21.80
2022-10-17T19:28:35.029Z,21.74
2022-10-17T19:31:02.494Z,21.67
2022-10-17T19:33:29.915Z,21.63
2022-10-17T19:36:00.829Z,21.55
2022-10-17T19:38:28.549Z,21.51
2022-10-17T19:40:56.026Z,21.50
2022-10-17T19:43:23.761Z,21.54
2022-10-17T19:45:55.793Z,21.48
2022-10-17T19:48:23.273Z,21.53
2022-10-17T19:50:51.170Z,21.51
2022-10-17T19:53:20.646Z,21.40
2022-10-17T19:55:47.984Z,21.42
2022-10-17T19:58:15.421Z,21.43
2022-10-17T20:00:47.217Z,21.50
2022-10-17T20:03:14.709Z,21.53
2022-10-17T20:05:42.140Z,21.42
2022-10-17T20:08:09.544Z,21.53
2022-10-17T20:10:38.277Z,21.53
2022-10-17T20:13:05.803Z,21.47
2022-10-17T20:15:33.404Z,21.45
2022-10-17T20:18:01.331Z,21.39
2022-10-17T20:20:29.793Z,21.36
2022-10-17T20:22:57.307Z,21.28
2022-10-17T20:25:24.760Z,21.23
2022-10-17T20:27:53.748Z,21.17
2022-10-17T20:30:25.424Z,21.18
2022-10-17T20:32:55.642Z,21.00
2022-10-17T20:35:24.556Z,20.95
2022-10-17T20:37:53.567Z,20.99
2022-10-17T20:40:37.146Z,20.95
2022-10-17T20:43:11.146Z,20.74
2022-10-17T20:45:51.493Z,20.85
2022-10-17T20:48:25.809Z,20.79
2022-10-17T20:50:55.275Z,20.75
2022-10-17T20:53:38.205Z,20.76
2022-10-17T20:56:07.578Z,20.76
2022-10-17T20:58:36.925Z,20.73
2022-10-17T21:01:09.045Z,20.27
2022-10-17T21:03:42.442Z,20.39
2022-10-17T21:06:13.675Z,20.46
2022-10-17T21:08:41.301Z,20.44
2022-10-17T21:11:11.053Z,20.52
2022-10-17T21:13:40.687Z,20.54
2022-10-17T21:16:10.324Z,20.48
2022-10-17T21:18:38.177Z,20.41
2022-10-17T21:21:14.588Z,20.40
2022-10-17T21:23:50.682Z,20.27
2022-10-17T21:26:19.111Z,20.37
2022-10-17T21:28:49.791Z,20.41
2022-10-17T21:31:19.463Z,20.32
2022-10-17T21:33:48.972Z,20.79
2022-10-17T21:36:17.659Z,20.95
2022-10-17T21:38:46.409Z,20.67
2022-10-17T21:41:15.564Z,20.65
2022-10-17T21:43:43.890Z,20.68
2022-10-17T21:46:15.920Z,20.81
2022-10-17T21:48:43.816Z,20.83
2022-10-17T21:51:14.507Z,20.88
2022-10-17T21:53:42.519Z,20.54
2022-10-17T21:56:15.261Z,20.76
2022-10-17T21:58:43.422Z,20.78
2022-10-17T22:01:17.540Z,20.83
2022-10-17T22:03:47.114Z,20.82
2022-10-17T22:06:38.605Z,20.81
2022-10-17T22:09:09.378Z,20.70
2022-10-17T22:11:37.142Z,20.49
2022-10-17T22:14:06.521Z,20.36
2022-10-17T22:16:35.745Z,20.69
2022-10-17T22:19:06.403Z,20.40
2022-10-17T22:21:35.629Z,20.23
2022-10-17T22:24:05.978Z,20.48
2022-10-17T22:26:35.552Z,20.59
2022-10-17T22:29:04.345Z,20.47
2022-10-17T22:31:31.891Z,20.69
2022-10-17T22:34:00.645Z,20.67
2022-10-17T22:36:28.062Z,20.63
2022-10-17T22:38:55.733Z,20.54
2022-10-17T22:41:23.412Z,20.59
2022-10-17T22:43:50.857Z,20.65
2022-10-17T22:46:18.543Z,20.59
2022-10-17T22:48:45.973Z,20.64
2022-10-17T22:51:15.229Z,20.61
2022-10-17T22:53:44.820Z,20.59
2022-10-17T22:56:14.482Z,20.57
2022-10-17T22:58:42.259Z,20.63
2022-10-17T23:01:13.956Z,20.61
2022-10-17T23:03:41.548Z,20.67
2022-10-17T23:06:08.949Z,20.62
2022-10-17T23:08:38.244Z,20.65
2022-10-17T23:11:06.153Z,20.53
2022-10-17T23:13:33.564Z,20.54
2022-10-17T23:16:01.036Z,20.66
2022-10-17T23:18:28.493Z,20.65
2022-10-17T23:20:56.400Z,20.48
2022-10-17T23:23:24.248Z,20.42
2022-10-17T23:25:53.642Z,20.37
2022-10-17T23:28:21.186Z,20.37
2022-10-17T23:30:48.576Z,20.43
2022-10-17T23:33:15.961Z,20.53
2022-10-17T23:35:43.488Z,20.49
2022-10-17T23:38:11.245Z,20.47
2022-10-17T23:40:38.732Z,20.52
2022-10-17T23:43:07.483Z,20.52
2022-10-17T23:45:37.165Z,20.62
2022-10-17T23:48:05.493Z,20.65
2022-10-17T23:50:32.907Z,20.48
2022-10-17T23:53:00.306Z,20.53
2022-10-17T23:55:27.738Z,20.58
2022-10-17T23:57:55.140Z,20.53
